Time;durP1;ratioP1;P1;durP2;ratioP2;P2;SDS_P1;SDS_P2;PMS_P1;PMS_P2;Temp;Humidity;BMP_temperature;BMP_pressure;BME280_temperature;BME280_humidity;BME280_pressure;Samples;Min_cycle;Max_cycle;Signal;HPM_P1;HPM_P2
2022/11/19 00:01:20;;;;;;;15.63;9.50;;;8.30;72.30;;;;;;5034525;28;20109;-65
2022/11/19 00:03:47;;;;;;;16.08;9.27;;;8.30;72.40;;;;;;5032867;28;20073;-65
2022/11/19 00:06:24;;;;;;;15.43;9.20;;;8.30;72.40;;;;;;5033585;28;20349;-65
2022/11/19 00:08:50;;;;;;;15.73;9.32;;;8.30;72.40;;;;;;5030645;28;20365;-65
2022/11/19 00:12:53;;;;;;;15.20;9.45;;;8.30;72.30;;;;;;5033755;28;20109;-65
2022/11/19 00:14:05;;;;;;;16.73;10.23;;;8.30;72.30;;;;;;5034241;28;20434;-65
2022/11/19 00:16:31;;;;;;;15.93;9.93;;;8.20;72.20;;;;;;5033110;28;20102;-65
2022/11/19 00:18:57;;;;;;;17.17;11.13;;;8.20;72.30;;;;;;5032840;28;20132;-65
2022/11/19 00:21:22;;;;;;;16.45;9.27;;;8.10;72.30;;;;;;5033743;28;20466;-65
2022/11/19 00:23:53;;;;;;;17.05;10.60;;;8.10;72.30;;;;;;5033422;28;20056;-65
2022/11/19 00:26:19;;;;;;;17.00;10.50;;;8.20;72.20;;;;;;5031777;28;20038;-65
2022/11/19 00:28:44;;;;;;;16.77;10.50;;;8.20;72.10;;;;;;5032491;28;20045;-65
2022/11/19 00:31:12;;;;;;;15.20;10.00;;;8.10;71.90;;;;;;5033956;28;20037;-65
2022/11/19 00:33:39;;;;;;;16.75;10.10;;;8.00;71.90;;;;;;5031838;28;20036;-65
2022/11/19 00:36:06;;;;;;;13.52;9.30;;;8.00;72.00;;;;;;5032982;28;20073;-65
2022/11/19 00:38:33;;;;;;;16.80;10.27;;;8.00;72.70;;;;;;5032713;28;20017;-65
2022/11/19 00:40:59;;;;;;;17.17;10.13;;;8.00;72.00;;;;;;5033927;28;20029;-65
2022/11/19 00:46:09;;;;;;;16.05;10.00;;;8.00;71.90;;;;;;5033125;28;20068;-65
2022/11/19 00:48:37;;;;;;;16.67;10.32;;;8.00;71.80;;;;;;5033077;28;20029;-65
2022/11/19 00:51:02;;;;;;;16.58;10.38;;;8.00;71.70;;;;;;5034089;28;20389;-65
2022/11/19 00:53:28;;;;;;;17.33;10.25;;;8.00;71.70;;;;;;5031693;28;20126;-65
2022/11/19 00:55:54;;;;;;;14.88;9.73;;;8.00;71.70;;;;;;5032663;28;20037;-65
2022/11/19 00:58:19;;;;;;;16.05;10.00;;;8.00;71.70;;;;;;5030874;28;20091;-65
2022/11/19 01:00:46;;;;;;;15.23;9.85;;;8.00;71.60;;;;;;5047111;28;20025;-65
2022/11/19 01:03:12;;;;;;;15.40;9.63;;;8.00;71.60;;;;;;5031697;28;20025;-65
2022/11/19 01:05:37;;;;;;;15.40;9.25;;;8.00;71.50;;;;;;5031695;28;20048;-65
2022/11/19 01:08:03;;;;;;;17.00;10.77;;;7.90;71.50;;;;;;5043464;28;20030;-65
2022/11/19 01:10:29;;;;;;;15.50;9.48;;;7.90;71.50;;;;;;5031988;28;20501;-65
2022/11/19 01:15:38;;;;;;;15.23;10.30;;;7.90;71.40;;;;;;5033326;28;20083;-65
2022/11/19 01:18:04;;;;;;;15.02;10.32;;;7.80;71.40;;;;;;5033527;28;20054;-65
2022/11/19 01:20:30;;;;;;;17.77;11.13;;;7.80;71.40;;;;;;5032642;28;20094;-65
2022/11/19 01:22:55;;;;;;;16.75;10.43;;;7.80;71.30;;;;;;5033595;28;20029;-65
2022/11/19 01:25:21;;;;;;;17.25;10.60;;;7.80;71.30;;;;;;5031937;28;20378;-65
2022/11/19 01:27:47;;;;;;;16.42;10.25;;;7.80;71.80;;;;;;5033486;28;20029;-65
2022/11/19 01:30:13;;;;;;;15.63;10.20;;;7.70;71.10;;;;;;5031730;28;20045;-65
2022/11/19 01:32:39;;;;;;;18.60;10.90;;;7.80;71.10;;;;;;5032557;28;20033;-65
2022/11/19 01:35:05;;;;;;;17.17;10.95;;;7.80;71.00;;;;;;5031099;28;20084;-65
2022/11/19 01:37:31;;;;;;;15.15;10.25;;;7.80;71.00;;;;;;5032899;28;20045;-65
2022/11/19 01:39:56;;;;;;;17.20;10.90;;;7.80;70.90;;;;;;5028719;28;20029;-65
2022/11/19 01:42:52;;;;;;;18.33;11.18;;;7.80;70.80;;;;;;5035220;28;20038;-65
2022/11/19 01:45:44;;;;;;;17.60;11.18;;;7.70;70.70;;;;;;5035810;28;20029;-65
2022/11/19 01:48:25;;;;;;;16.50;10.85;;;7.70;70.70;;;;;;5034105;28;20044;-65
2022/11/19 01:51:00;;;;;;;16.25;10.88;;;7.70;70.70;;;;;;5036116;28;20026;-65
2022/11/19 01:53:29;;;;;;;17.45;11.45;;;7.70;70.60;;;;;;5041596;28;20025;-65
2022/11/19 01:56:02;;;;;;;18.45;11.32;;;7.60;70.40;;;;;;5035261;28;20068;-66
2022/11/19 01:58:42;;;;;;;21.13;12.50;;;7.60;70.30;;;;;;5037606;28;20045;-66
2022/11/19 02:01:09;;;;;;;20.58;12.73;;;7.60;70.20;;;;;;5039721;28;20029;-65
2022/11/19 02:03:37;;;;;;;19.40;13.05;;;7.60;70.10;;;;;;5049409;28;20335;-66
2022/11/19 02:06:03;;;;;;;19.05;12.05;;;7.50;70.00;;;;;;5041004;28;20025;-65
2022/11/19 02:08:40;;;;;;;20.05;12.68;;;7.50;70.00;;;;;;5057522;28;20029;-65
2022/11/19 02:11:27;;;;;;;18.58;12.75;;;7.50;70.00;;;;;;5041974;28;20404;-65
2022/11/19 02:14:01;;;;;;;18.67;11.50;;;7.50;69.90;;;;;;5029604;28;20124;-65
2022/11/19 02:17:01;;;;;;;20.95;13.45;;;7.50;70.00;;;;;;5037764;28;20113;-65
2022/11/19 02:19:49;;;;;;;20.60;13.75;;;7.50;69.90;;;;;;5011202;28;20050;-65
2022/11/19 02:22:34;;;;;;;21.00;13.38;;;7.40;69.80;;;;;;5031250;28;20458;-65
2022/11/19 02:25:29;;;;;;;21.15;13.82;;;7.40;69.70;;;;;;5043914;28;20036;-65
2022/11/19 02:28:00;;;;;;;22.27;14.05;;;7.40;69.70;;;;;;5036486;28;20466;-65
2022/11/19 02:30:32;;;;;;;21.30;13.80;;;7.30;69.70;;;;;;5035946;28;20064;-65
2022/11/19 02:33:35;;;;;;;20.65;13.98;;;7.30;69.60;;;;;;5034827;28;20044;-65
2022/11/19 02:36:11;;;;;;;22.63;15.13;;;7.30;69.50;;;;;;5026761;28;20381;-65
2022/11/19 02:38:40;;;;;;;21.35;14.57;;;7.30;69.60;;;;;;5033178;28;20028;-65
2022/11/19 02:41:37;;;;;;;21.13;14.05;;;7.30;69.50;;;;;;5035791;28;20034;-65
2022/11/19 02:47:16;;;;;;;21.15;14.25;;;7.30;69.30;;;;;;5033556;28;20088;-66
2022/11/19 02:49:44;;;;;;;22.23;14.70;;;7.30;69.40;;;;;;5036786;28;20037;-65
2022/11/19 02:52:11;;;;;;;22.35;14.57;;;7.20;69.40;;;;;;5026987;28;20037;-65
2022/11/19 02:54:36;;;;;;;23.13;14.38;;;7.20;69.30;;;;;;5044396;28;20409;-65
2022/11/19 02:57:02;;;;;;;22.60;15.38;;;7.20;69.30;;;;;;5035777;28;20112;-65
2022/11/19 03:05:44;;;;;;;24.23;15.73;;;7.10;69.30;;;;;;5037914;28;20033;-65
2022/11/19 03:08:09;;;;;;;21.98;14.30;;;7.10;69.30;;;;;;5042673;28;20035;-65
2022/11/19 03:10:58;;;;;;;23.38;15.13;;;7.10;69.20;;;;;;5035757;28;20026;-65
2022/11/19 03:16:43;;;;;;;20.08;13.68;;;7.00;69.10;;;;;;5042712;28;20454;-65
2022/11/19 03:19:32;;;;;;;22.85;13.98;;;7.00;69.10;;;;;;5032203;28;20050;-65
2022/11/19 03:22:27;;;;;;;23.38;14.93;;;7.00;69.10;;;;;;5032056;28;20167;-65
2022/11/19 03:25:27;;;;;;;22.40;14.13;;;7.00;69.90;;;;;;5034169;28;20049;-65
2022/11/19 03:28:00;;;;;;;23.20;15.52;;;7.00;69.20;;;;;;5046694;28;20033;-65
2022/11/19 03:30:28;;;;;;;23.90;15.97;;;6.90;69.20;;;;;;5021425;28;20090;-65
2022/11/19 03:33:09;;;;;;;25.42;16.25;;;6.90;69.20;;;;;;5034624;28;20026;-65
2022/11/19 03:35:48;;;;;;;25.25;16.13;;;6.90;69.00;;;;;;5033851;28;20103;-65
2022/11/19 03:38:23;;;;;;;21.88;15.48;;;6.80;69.00;;;;;;5045744;28;20330;-65
2022/11/19 03:40:50;;;;;;;23.10;15.67;;;6.80;69.00;;;;;;5034361;28;20052;-65
2022/11/19 03:43:18;;;;;;;21.57;15.37;;;6.80;69.00;;;;;;5035946;28;20025;-65
2022/11/19 03:45:46;;;;;;;24.42;16.90;;;6.80;68.90;;;;;;5033983;28;20485;-65
2022/11/19 03:48:14;;;;;;;23.25;16.17;;;6.70;68.80;;;;;;5034162;28;20031;-65
2022/11/19 03:51:00;;;;;;;24.23;16.57;;;6.80;68.90;;;;;;5033702;28;20025;-65
2022/11/19 03:53:27;;;;;;;24.65;15.48;;;6.80;68.80;;;;;;5038843;28;20033;-65
2022/11/19 03:55:58;;;;;;;22.87;15.73;;;6.70;68.80;;;;;;5039604;28;20033;-65
2022/11/19 03:58:25;;;;;;;24.33;16.55;;;6.70;68.70;;;;;;5048595;28;20365;-65
2022/11/19 04:00:50;;;;;;;24.20;15.85;;;6.70;68.70;;;;;;5038669;28;20057;-65
2022/11/19 04:03:16;;;;;;;22.50;15.73;;;6.70;68.80;;;;;;5044397;28;20061;-65
2022/11/19 04:05:42;;;;;;;25.00;15.90;;;6.70;68.70;;;;;;5036696;28;20029;-65
2022/11/19 04:08:07;;;;;;;23.30;15.33;;;6.70;68.80;;;;;;5047573;28;20410;-65
2022/11/19 04:10:33;;;;;;;24.83;16.23;;;6.60;68.70;;;;;;5040236;28;20025;-65
2022/11/19 04:12:59;;;;;;;25.77;16.67;;;6.60;68.70;;;;;;5047087;28;20025;-65
2022/11/19 04:15:24;;;;;;;23.50;15.37;;;6.60;68.80;;;;;;5033849;28;20037;-65
2022/11/19 04:17:50;;;;;;;23.43;15.70;;;6.50;68.70;;;;;;5042628;28;20052;-65
2022/11/19 04:20:16;;;;;;;23.83;15.50;;;6.60;69.30;;;;;;5035048;28;20410;-65
2022/11/19 04:22:41;;;;;;;23.53;15.30;;;6.50;68.60;;;;;;5037756;28;20029;-65
2022/11/19 04:25:07;;;;;;;26.50;16.47;;;6.60;68.50;;;;;;5028342;28;20414;-65
2022/11/19 04:27:33;;;;;;;22.37;15.60;;;6.50;68.50;;;;;;5038343;28;20056;-65
2022/11/19 04:29:58;;;;;;;24.05;15.65;;;6.60;68.50;;;;;;5049679;28;20083;-65
2022/11/19 04:32:24;;;;;;;24.60;16.47;;;6.50;68.50;;;;;;5040427;28;20026;-65
2022/11/19 04:34:50;;;;;;;26.77;17.70;;;6.50;68.50;;;;;;5035762;28;20094;-65
2022/11/19 04:37:15;;;;;;;24.97;16.57;;;6.50;68.50;;;;;;5032113;28;20108;-65
2022/11/19 04:39:41;;;;;;;24.63;15.70;;;6.50;68.50;;;;;;5050325;28;20036;-65
2022/11/19 04:42:07;;;;;;;25.27;16.33;;;6.50;68.40;;;;;;5031272;28;20453;-65
2022/11/19 04:44:33;;;;;;;26.97;17.00;;;6.50;68.40;;;;;;5034888;28;20044;-65
2022/11/19 04:46:58;;;;;;;25.20;16.63;;;6.50;68.50;;;;;;5036865;28;20025;-65
2022/11/19 04:49:24;;;;;;;25.67;16.47;;;6.50;68.40;;;;;;5036307;28;20035;-65
2022/11/19 04:51:50;;;;;;;24.87;16.17;;;6.50;68.30;;;;;;5036256;28;20033;-65
2022/11/19 04:54:16;;;;;;;23.30;16.50;;;6.50;68.20;;;;;;5031455;28;20021;-65
2022/11/19 04:56:41;;;;;;;24.90;16.30;;;6.50;68.20;;;;;;5043847;28;20041;-65
2022/11/19 04:59:07;;;;;;;26.87;16.40;;;6.50;68.20;;;;;;5032807;28;20046;-65
2022/11/19 05:01:33;;;;;;;27.40;17.47;;;6.50;68.20;;;;;;5037077;28;20033;-65
2022/11/19 05:03:59;;;;;;;26.43;17.13;;;6.50;68.20;;;;;;5035480;28;20037;-65
2022/11/19 05:06:24;;;;;;;27.50;16.30;;;6.40;68.20;;;;;;5019344;28;20135;-65
2022/11/19 05:08:50;;;;;;;27.13;16.90;;;6.30;68.20;;;;;;5038009;28;20056;-65
2022/11/19 05:11:16;;;;;;;26.20;16.30;;;6.30;68.30;;;;;;5032811;28;20068;-65
2022/11/19 05:13:41;;;;;;;26.07;16.23;;;6.40;68.30;;;;;;5031745;28;20029;-64
2022/11/19 05:16:07;;;;;;;24.27;16.93;;;6.30;68.20;;;;;;5036230;28;20040;-65
2022/11/19 05:18:32;;;;;;;25.53;16.53;;;6.30;68.20;;;;;;5034359;28;20049;-65
2022/11/19 05:20:58;;;;;;;26.03;16.30;;;6.30;68.20;;;;;;5037829;28;20044;-65
2022/11/19 05:23:24;;;;;;;27.63;17.70;;;6.30;68.10;;;;;;5034082;28;20084;-65
2022/11/19 05:25:50;;;;;;;25.03;17.57;;;6.30;68.20;;;;;;5036156;28;20104;-65
2022/11/19 05:28:16;;;;;;;25.43;16.67;;;6.30;68.20;;;;;;5049722;28;20426;-65
2022/11/19 05:30:41;;;;;;;26.87;17.17;;;6.30;68.10;;;;;;5035416;28;20036;-65
2022/11/19 05:33:07;;;;;;;25.90;16.70;;;6.20;68.00;;;;;;5039841;28;20369;-65
2022/11/19 05:35:33;;;;;;;25.30;16.30;;;6.30;68.10;;;;;;5035499;28;20041;-65
2022/11/19 05:37:58;;;;;;;26.70;17.30;;;6.20;68.00;;;;;;5036388;28;20035;-65
2022/11/19 05:40:24;;;;;;;26.13;16.90;;;6.20;68.00;;;;;;5038010;28;21481;-65
2022/11/19 05:42:49;;;;;;;28.77;16.93;;;6.20;67.90;;;;;;5036106;28;20041;-65
2022/11/19 05:45:15;;;;;;;24.83;16.23;;;6.20;67.90;;;;;;5034802;28;20126;-65
2022/11/19 05:47:41;;;;;;;27.43;18.27;;;6.20;67.80;;;;;;5036238;28;20036;-65
2022/11/19 05:50:07;;;;;;;29.27;17.80;;;6.20;67.90;;;;;;5037265;28;20021;-65
2022/11/19 05:52:33;;;;;;;25.93;16.67;;;6.10;67.80;;;;;;5026901;28;20029;-65
2022/11/19 05:54:59;;;;;;;24.97;15.73;;;6.10;67.90;;;;;;5042899;28;20412;-65
2022/11/19 05:57:24;;;;;;;26.07;16.60;;;6.10;67.90;;;;;;5051581;28;20033;-65
2022/11/19 05:59:50;;;;;;;23.73;16.00;;;6.10;67.80;;;;;;5045153;28;20047;-65
2022/11/19 06:02:15;;;;;;;25.87;16.50;;;6.00;67.70;;;;;;5052153;28;20033;-65
2022/11/19 06:04:41;;;;;;;23.97;15.83;;;6.00;67.80;;;;;;5037017;28;20120;-65
2022/11/19 06:07:07;;;;;;;23.40;15.40;;;6.00;67.80;;;;;;5042307;28;20029;-65
2022/11/19 06:09:32;;;;;;;24.63;15.37;;;6.00;67.70;;;;;;5043833;28;20102;-65
2022/11/19 06:11:58;;;;;;;25.57;15.60;;;6.00;67.60;;;;;;5053131;28;20052;-65
2022/11/19 06:14:25;;;;;;;25.37;16.60;;;6.00;67.60;;;;;;5040327;28;20025;-65
2022/11/19 06:16:56;;;;;;;24.63;16.40;;;6.00;67.60;;;;;;5056687;28;20390;-65
2022/11/19 06:19:22;;;;;;;23.27;15.73;;;5.90;67.50;;;;;;5042563;28;20037;-65
2022/11/19 06:21:49;;;;;;;23.70;15.80;;;5.90;67.60;;;;;;5038911;28;20021;-65
2022/11/19 06:24:15;;;;;;;22.80;14.90;;;5.90;67.60;;;;;;5039328;28;20029;-65
2022/11/19 06:26:41;;;;;;;25.07;16.13;;;5.90;67.50;;;;;;5042267;28;20025;-65
2022/11/19 06:29:08;;;;;;;31.10;16.10;;;5.90;67.60;;;;;;5044161;28;20103;-65
2022/11/19 06:31:34;;;;;;;25.70;15.80;;;5.80;67.60;;;;;;5055494;28;20039;-65
2022/11/19 06:34:00;;;;;;;25.20;15.93;;;5.80;67.60;;;;;;5049673;28;20116;-65
2022/11/19 06:36:26;;;;;;;24.50;15.47;;;5.80;67.50;;;;;;5042499;28;20029;-65
2022/11/19 06:38:51;;;;;;;23.17;14.93;;;5.70;67.40;;;;;;5047181;28;20331;-65
2022/11/19 06:41:18;;;;;;;25.97;16.00;;;5.70;67.50;;;;;;5035822;28;20094;-66
2022/11/19 06:43:44;;;;;;;24.37;15.87;;;5.70;67.50;;;;;;5039188;28;20029;-65
2022/11/19 06:46:11;;;;;;;25.90;16.20;;;5.70;67.50;;;;;;5037456;28;20079;-65
2022/11/19 06:48:37;;;;;;;23.27;14.37;;;5.70;67.40;;;;;;5038441;28;20028;-67
2022/11/19 06:51:03;;;;;;;27.13;15.50;;;5.70;67.40;;;;;;5045720;28;20021;-66
2022/11/19 06:53:29;;;;;;;23.57;15.60;;;5.60;67.40;;;;;;5036425;28;20377;-65
2022/11/19 06:56:05;;;;;;;27.17;16.83;;;5.60;67.40;;;;;;5038416;28;20334;-65
2022/11/19 06:58:31;;;;;;;24.60;14.83;;;5.70;67.50;;;;;;5050568;28;20167;-65
2022/11/19 07:00:57;;;;;;;25.23;15.67;;;5.70;67.50;;;;;;5049262;28;20132;-66
2022/11/19 07:03:23;;;;;;;25.17;15.47;;;5.70;67.30;;;;;;5035816;28;20040;-64
2022/11/19 07:05:54;;;;;;;24.87;15.70;;;5.60;67.20;;;;;;5034136;28;20469;-65
2022/11/19 07:08:20;;;;;;;24.30;15.57;;;5.60;67.20;;;;;;5034101;28;20029;-65
2022/11/19 07:10:45;;;;;;;26.10;15.60;;;5.60;67.20;;;;;;5034607;28;20024;-65
2022/11/19 07:13:12;;;;;;;25.37;15.63;;;5.60;67.20;;;;;;5035031;28;20026;-65
2022/11/19 07:15:37;;;;;;;22.07;14.10;;;5.50;67.10;;;;;;5036306;28;20504;-65
2022/11/19 07:18:03;;;;;;;23.10;14.47;;;5.60;67.20;;;;;;5033730;28;20065;-66
2022/11/19 07:20:29;;;;;;;23.97;15.23;;;5.50;67.00;;;;;;5033815;28;20139;-65
2022/11/19 07:22:55;;;;;;;25.73;15.87;;;5.50;67.10;;;;;;5032310;28;20069;-65
2022/11/19 07:25:20;;;;;;;24.83;14.80;;;5.50;67.10;;;;;;5037128;28;20446;-65
2022/11/19 07:27:46;;;;;;;23.67;14.47;;;5.50;67.00;;;;;;5035996;28;20051;-65
2022/11/19 07:30:15;;;;;;;25.03;15.30;;;5.50;67.00;;;;;;5034763;28;20036;-65
2022/11/19 07:32:42;;;;;;;25.17;15.30;;;5.50;66.90;;;;;;5033546;28;20431;-65
2022/11/19 07:35:08;;;;;;;24.33;14.73;;;5.50;66.90;;;;;;5036609;28;20030;-65
2022/11/19 07:37:35;;;;;;;25.50;15.83;;;5.50;66.90;;;;;;5034035;28;20028;-65
2022/11/19 07:40:01;;;;;;;22.13;14.37;;;5.40;67.50;;;;;;5032837;28;20026;-65
2022/11/19 07:45:11;;;;;;;22.93;13.87;;;5.40;66.90;;;;;;5037786;28;20048;-65
2022/11/19 07:47:36;;;;;;;23.20;15.07;;;5.40;66.80;;;;;;5033969;28;20366;-68
2022/11/19 07:50:03;;;;;;;25.57;15.17;;;5.40;66.70;;;;;;5033877;28;21033;-67
2022/11/19 07:52:29;;;;;;;25.50;15.00;;;5.40;66.60;;;;;;5036004;28;20386;-67
2022/11/19 07:54:55;;;;;;;22.60;14.87;;;5.50;66.60;;;;;;5037599;28;20103;-67
2022/11/19 07:57:21;;;;;;;25.77;15.30;;;5.40;66.50;;;;;;5051383;28;20059;-67
2022/11/19 07:59:47;;;;;;;21.27;12.97;;;5.40;66.50;;;;;;5048785;28;20029;-67
2022/11/19 08:02:13;;;;;;;22.63;14.70;;;5.40;66.60;;;;;;5047581;28;20036;-67
2022/11/19 08:04:38;;;;;;;25.47;14.97;;;5.40;66.50;;;;;;5034589;28;20030;-67
2022/11/19 08:07:04;;;;;;;22.40;13.47;;;5.40;66.40;;;;;;5032266;28;20017;-67
2022/11/19 08:09:30;;;;;;;22.43;13.10;;;5.40;66.30;;;;;;5033307;28;20032;-67
2022/11/19 08:11:55;;;;;;;24.10;14.03;;;5.40;66.30;;;;;;5030668;28;20022;-67
2022/11/19 08:14:21;;;;;;;20.57;13.87;;;5.30;66.10;;;;;;5039965;28;20418;-68
2022/11/19 08:19:30;;;;;;;20.70;12.50;;;5.20;66.20;;;;;;5032852;28;20045;-67
2022/11/19 08:21:56;;;;;;;24.03;14.07;;;5.20;66.10;;;;;;5033072;28;20041;-67
2022/11/19 08:24:22;;;;;;;21.83;13.10;;;5.10;66.10;;;;;;5029759;28;20033;-68
2022/11/19 08:26:48;;;;;;;25.10;13.87;;;5.20;66.10;;;;;;5032492;28;20386;-68
2022/11/19 08:29:15;;;;;;;23.03;14.40;;;5.10;66.00;;;;;;5032200;28;20040;-67
2022/11/19 08:31:43;;;;;;;24.47;13.17;;;5.20;65.90;;;;;;5032343;28;20485;-67
2022/11/19 08:34:09;;;;;;;22.47;13.07;;;5.30;65.80;;;;;;5033518;28;20041;-67
2022/11/19 08:36:35;;;;;;;20.03;12.90;;;5.30;65.70;;;;;;5024449;28;20048;-68
2022/11/19 08:39:02;;;;;;;22.70;13.97;;;5.30;65.50;;;;;;5037143;28;20520;-68
2022/11/19 08:44:13;;;;;;;20.33;13.03;;;5.40;65.30;;;;;;5026604;28;20037;-69
2022/11/19 08:46:40;;;;;;;20.70;12.60;;;5.40;65.10;;;;;;5034373;28;20035;-68
2022/11/19 08:49:06;;;;;;;19.77;12.20;;;5.40;64.90;;;;;;5031622;28;20040;-69
2022/11/19 08:51:32;;;;;;;19.80;11.73;;;5.30;64.90;;;;;;5034033;28;20380;-68
2022/11/19 08:53:58;;;;;;;21.20;12.93;;;5.30;64.80;;;;;;5043851;28;20338;-68
2022/11/19 08:56:24;;;;;;;19.50;12.17;;;5.30;64.80;;;;;;5035976;28;20029;-69
2022/11/19 08:58:51;;;;;;;19.27;11.70;;;5.30;64.80;;;;;;5044300;28;20060;-69
2022/11/19 09:01:17;;;;;;;21.13;12.67;;;5.20;64.70;;;;;;5045943;28;20026;-69
2022/11/19 09:03:43;;;;;;;20.83;12.63;;;5.20;64.70;;;;;;5043792;28;20467;-68
2022/11/19 09:06:10;;;;;;;20.17;11.97;;;5.20;64.60;;;;;;5052878;28;20116;-68
2022/11/19 09:08:35;;;;;;;20.00;11.97;;;5.30;64.60;;;;;;5049577;28;20021;-69
2022/11/19 09:11:09;;;;;;;20.37;12.60;;;5.30;64.50;;;;;;5047359;28;20102;-69
2022/11/19 09:13:35;;;;;;;18.67;11.60;;;5.30;64.40;;;;;;5040152;28;20435;-69
2022/11/19 09:16:01;;;;;;;20.40;12.73;;;5.30;64.40;;;;;;5033965;28;20029;-69
2022/11/19 09:18:28;;;;;;;20.70;11.53;;;5.50;64.20;;;;;;5058554;28;20378;-69
2022/11/19 09:20:54;;;;;;;19.33;11.97;;;5.60;63.90;;;;;;5047717;28;20057;-69
2022/11/19 09:23:21;;;;;;;19.13;11.47;;;5.80;63.60;;;;;;5033675;28;20334;-69
2022/11/19 09:25:59;;;;;;;18.90;11.60;;;5.90;63.20;;;;;;5039209;28;20034;-69
2022/11/19 09:28:26;;;;;;;18.40;11.83;;;5.90;62.90;;;;;;5036061;28;20036;-69
2022/11/19 09:30:57;;;;;;;16.93;10.93;;;6.00;62.70;;;;;;5023048;28;20028;-69
2022/11/19 09:33:23;;;;;;;20.27;11.37;;;6.00;62.50;;;;;;5028308;28;20116;-68
2022/11/19 09:35:48;;;;;;;17.67;11.33;;;6.10;62.50;;;;;;5037000;28;20407;-68
2022/11/19 09:38:14;;;;;;;18.87;12.03;;;6.00;62.30;;;;;;5035769;28;20315;-68
2022/11/19 09:40:48;;;;;;;18.97;12.10;;;6.00;62.30;;;;;;5042782;28;20021;-70
2022/11/19 09:43:29;;;;;;;17.33;10.87;;;6.10;62.20;;;;;;5049358;28;20112;-69
2022/11/19 09:46:00;;;;;;;18.10;10.90;;;6.10;62.00;;;;;;5033689;28;20412;-69
2022/11/19 09:48:37;;;;;;;17.40;10.50;;;6.20;61.80;;;;;;5041964;28;20101;-69
2022/11/19 09:51:15;;;;;;;17.23;10.50;;;6.30;61.60;;;;;;5052531;28;20389;-68
2022/11/19 09:53:57;;;;;;;17.70;11.10;;;6.40;61.40;;;;;;5046923;28;20338;-69
2022/11/19 09:56:31;;;;;;;17.90;10.93;;;6.60;61.10;;;;;;5042627;28;20112;-69
2022/11/19 09:58:58;;;;;;;16.97;11.03;;;6.80;60.70;;;;;;5038459;28;20040;-69
2022/11/19 10:01:27;;;;;;;17.93;12.00;;;7.00;60.30;;;;;;5035271;28;20037;-69
2022/11/19 10:03:53;;;;;;;16.13;10.23;;;7.20;59.90;;;;;;5040352;28;20458;-68
2022/11/19 10:06:43;;;;;;;17.33;9.95;;;7.30;59.50;;;;;;5044671;28;20362;-69
2022/11/19 10:09:09;;;;;;;16.70;10.77;;;7.40;59.20;;;;;;5044793;28;20136;-68
2022/11/19 10:11:43;;;;;;;14.87;9.17;;;7.50;59.10;;;;;;5040158;28;20053;-69
2022/11/19 10:14:15;;;;;;;15.87;9.30;;;7.60;58.70;;;;;;5035659;28;20119;-68
2022/11/19 10:16:44;;;;;;;;;;;7.70;58.50;;;;;;5025280;28;20025;-69
2022/11/19 10:19:53;;;;;;;15.43;9.63;;;7.80;58.60;;;;;;5044552;28;19921;-68
2022/11/19 10:22:23;;;;;;;15.07;9.20;;;7.90;58.20;;;;;;5035004;28;20382;-68
2022/11/19 10:25:04;;;;;;;15.13;9.98;;;7.90;58.10;;;;;;5033139;28;20492;-68
2022/11/19 10:27:54;;;;;;;15.30;9.93;;;8.00;57.70;;;;;;5035165;28;20053;-68
2022/11/19 10:30:23;;;;;;;15.30;10.33;;;8.10;57.50;;;;;;5036294;28;20025;-67
2022/11/19 10:33:06;;;;;;;17.20;10.13;;;8.20;57.20;;;;;;5031147;28;20064;-67
2022/11/19 10:35:39;;;;;;;14.30;9.67;;;8.20;57.00;;;;;;5018162;28;20519;-67
2022/11/19 10:38:32;;;;;;;14.77;9.27;;;8.30;57.00;;;;;;5035343;28;20064;-67
2022/11/19 10:41:08;;;;;;;14.90;9.73;;;8.30;56.70;;;;;;5033785;28;20445;-68
2022/11/19 10:43:44;;;;;;;16.73;9.17;;;8.40;56.60;;;;;;5033424;28;20033;-67
2022/11/19 10:46:15;;;;;;;14.82;10.00;;;8.40;56.50;;;;;;5020204;28;20105;-67
2022/11/19 10:48:44;;;;;;;13.85;8.65;;;8.40;56.30;;;;;;5032776;28;20091;-67
2022/11/19 10:51:23;;;;;;;15.60;9.63;;;8.50;56.40;;;;;;5032624;28;20027;-67
2022/11/19 10:53:50;;;;;;;15.73;9.82;;;8.50;56.10;;;;;;5016902;28;20220;-67
2022/11/19 10:56:22;;;;;;;13.82;9.10;;;8.50;56.20;;;;;;5033158;28;20030;-68
2022/11/19 10:58:57;;;;;;;14.60;8.88;;;8.50;55.80;;;;;;5019794;28;20045;-67
2022/11/19 11:01:30;;;;;;;14.45;9.38;;;8.50;55.70;;;;;;5036222;28;20112;-68
2022/11/19 11:04:21;;;;;;;13.50;9.30;;;8.50;55.80;;;;;;5035572;28;20319;-68
2022/11/19 11:06:56;;;;;;;15.52;9.52;;;8.50;55.50;;;;;;5030560;28;20354;-68
2022/11/19 11:09:29;;;;;;;12.30;7.97;;;8.40;55.60;;;;;;5041619;28;20029;-67
2022/11/19 11:14:51;;;;;;;13.45;8.65;;;8.30;55.60;;;;;;5029486;28;20188;-67
2022/11/19 11:17:31;;;;;;;13.05;8.60;;;8.20;55.40;;;;;;5033469;28;20033;-68
2022/11/19 11:19:59;;;;;;;13.13;8.35;;;8.10;55.50;;;;;;5033151;28;20033;-68
2022/11/19 11:22:26;;;;;;;12.53;8.57;;;8.00;55.50;;;;;;5035556;28;20437;-68
2022/11/19 11:24:52;;;;;;;13.75;9.45;;;7.90;55.50;;;;;;5032865;28;20037;-67
2022/11/19 11:27:32;;;;;;;13.48;8.70;;;7.90;55.50;;;;;;5037124;28;20025;-67
2022/11/19 11:30:13;;;;;;;14.20;9.00;;;7.70;55.50;;;;;;5038158;28;20037;-67
2022/11/19 11:32:41;;;;;;;14.55;8.63;;;7.60;55.60;;;;;;5033665;28;20087;-67
2022/11/19 11:35:30;;;;;;;13.18;8.95;;;7.50;55.80;;;;;;5034394;28;20040;-67
2022/11/19 11:37:57;;;;;;;12.32;8.88;;;7.40;55.70;;;;;;5035233;28;20033;-67
2022/11/19 11:40:23;;;;;;;14.68;8.75;;;7.30;55.80;;;;;;5020766;28;20020;-68
2022/11/19 11:42:51;;;;;;;14.73;8.23;;;7.20;55.80;;;;;;5018873;28;20115;-68
2022/11/19 11:45:35;;;;;;;12.88;8.40;;;7.10;55.80;;;;;;5034603;28;20043;-68
2022/11/19 11:48:18;;;;;;;14.80;8.60;;;7.10;55.80;;;;;;5035049;28;20358;-69
2022/11/19 11:50:45;;;;;;;11.83;7.43;;;7.00;55.80;;;;;;5033614;28;20053;-69
2022/11/19 11:53:15;;;;;;;12.60;7.57;;;6.90;55.90;;;;;;5045752;28;20037;-69
2022/11/19 11:55:42;;;;;;;13.00;7.77;;;6.80;55.90;;;;;;5050011;28;20024;-69
2022/11/19 11:58:26;;;;;;;13.63;8.37;;;6.70;56.00;;;;;;5046773;28;20033;-68
2022/11/19 12:00:54;;;;;;;12.27;7.60;;;6.70;55.90;;;;;;5050266;28;20349;-69
2022/11/19 12:03:21;;;;;;;12.10;7.60;;;6.60;56.00;;;;;;5040862;28;20029;-69
2022/11/19 12:06:15;;;;;;;11.87;7.87;;;6.60;55.90;;;;;;5047001;28;20036;-69
2022/11/19 12:09:04;;;;;;;13.03;7.57;;;6.60;55.70;;;;;;5043148;28;20049;-68
2022/11/19 12:11:56;;;;;;;12.47;7.77;;;6.60;55.80;;;;;;5030499;28;20057;-68
2022/11/19 12:14:57;;;;;;;11.37;6.97;;;6.60;55.80;;;;;;5032592;28;20029;-68
2022/11/19 12:17:47;;;;;;;12.23;6.70;;;6.50;55.70;;;;;;5028698;28;20044;-68
2022/11/19 12:20:49;;;;;;;12.40;7.03;;;6.60;55.80;;;;;;5038167;28;20030;-68
2022/11/19 12:23:14;;;;;;;;;;;6.60;55.60;;;;;;5035141;28;20402;-68
2022/11/19 12:26:11;;;;;;;11.77;6.63;;;6.50;55.80;;;;;;5019113;28;20008;-68
2022/11/19 12:28:52;;;;;;;12.40;6.97;;;6.50;55.80;;;;;;5016770;28;20041;-68
2022/11/19 12:31:44;;;;;;;11.47;6.80;;;6.60;55.70;;;;;;5045856;28;20033;-68
2022/11/19 12:34:28;;;;;;;;;;;6.50;55.60;;;;;;5033395;28;20035;-69
2022/11/19 12:37:34;;;;;;;11.60;6.47;;;6.60;55.80;;;;;;5032316;28;20350;-69
2022/11/19 12:40:20;;;;;;;11.20;6.27;;;6.50;55.60;;;;;;5033020;28;20033;-68
2022/11/19 12:43:00;;;;;;;12.17;7.17;;;6.50;55.50;;;;;;5032797;28;20156;-68
2022/11/19 12:45:55;;;;;;;11.47;6.03;;;6.60;55.40;;;;;;5017369;28;20029;-68
2022/11/19 12:48:45;;;;;;;11.37;6.43;;;6.60;55.30;;;;;;5015374;28;20024;-68
2022/11/19 12:51:38;;;;;;;12.37;6.90;;;6.60;55.10;;;;;;5022979;28;20506;-68
2022/11/19 12:54:22;;;;;;;12.07;6.57;;;6.60;54.90;;;;;;5038552;28;20029;-68
2022/11/19 12:57:07;;;;;;;10.30;5.97;;;6.60;54.70;;;;;;5053053;28;20037;-69
2022/11/19 13:00:04;;;;;;;10.90;6.43;;;6.70;54.50;;;;;;5032967;28;20095;-69
2022/11/19 13:03:07;;;;;;;10.77;6.07;;;6.70;54.40;;;;;;5039664;28;20026;-68
2022/11/19 13:05:50;;;;;;;9.30;5.40;;;6.70;54.20;;;;;;5002905;28;20077;-69
2022/11/19 13:08:29;;;;;;;9.70;5.73;;;6.70;54.20;;;;;;5043240;28;20091;-69
2022/11/19 13:11:19;;;;;;;10.83;6.13;;;6.70;54.20;;;;;;5050536;28;20395;-69
2022/11/19 13:13:54;;;;;;;10.83;6.43;;;6.70;54.10;;;;;;5038795;28;20464;-69
2022/11/19 13:16:23;;;;;;;10.23;5.83;;;6.70;54.20;;;;;;5050150;28;20041;-68
2022/11/19 13:18:52;;;;;;;10.43;5.80;;;6.70;54.20;;;;;;5033474;28;20053;-68
2022/11/19 13:21:29;;;;;;;10.07;5.50;;;6.70;54.00;;;;;;5034232;28;20053;-67
2022/11/19 13:23:55;;;;;;;9.60;4.83;;;6.80;54.00;;;;;;5046377;28;20064;-68
2022/11/19 13:26:29;;;;;;;10.30;5.73;;;6.80;53.90;;;;;;5034352;28;20033;-68
2022/11/19 13:29:19;;;;;;;9.37;5.03;;;6.80;53.70;;;;;;5034008;28;20105;-67
2022/11/19 13:32:09;;;;;;;10.13;5.43;;;6.80;53.50;;;;;;5020764;28;20413;-67